Time;durP1;ratioP1;P1;durP2;ratioP2;P2;SDS_P1;SDS_P2;PMS_P1;PMS_P2;Temp;Humidity;BMP_temperature;BMP_pressure;BME280_temperature;BME280_humidity;BME280_pressure;Samples;Min_cycle;Max_cycle;Signal;HPM_P1;HPM_P2
2021/09/21 00:01:05;;;;;;;;;19.50;16.75;;;;;23.22;47.79;101991.94;5038509;28;1104935;-53
2021/09/21 00:03:32;;;;;;;;;23.00;17.50;;;;;23.21;47.56;101990.22;5078199;28;45390;-52
2021/09/21 00:05:58;;;;;;;;;15.00;15.00;;;;;23.19;47.42;101986.78;5078482;28;45407;-49
2021/09/21 00:08:27;;;;;;;;;15.25;13.50;;;;;23.19;47.45;101981.50;5078476;28;45545;-53
2021/09/21 00:10:52;;;;;;;;;14.00;13.75;;;;;23.19;47.42;101986.78;5078248;28;46391;-53
2021/09/21 00:13:18;;;;;;;;;12.00;11.25;;;;;23.17;47.15;101989.47;5078215;28;45359;-55
2021/09/21 00:15:43;;;;;;;;;14.50;13.50;;;;;23.18;47.18;101993.84;5077772;28;53189;-50
2021/09/21 00:18:08;;;;;;;;;19.00;17.00;;;;;23.15;47.29;101997.50;5078381;28;45556;-56
2021/09/21 00:20:34;;;;;;;;;15.50;14.00;;;;;23.14;46.74;101995.78;5077770;28;46064;-58
2021/09/21 00:22:59;;;;;;;;;14.75;13.25;;;;;23.16;47.16;102004.50;5078001;28;45395;-54
2021/09/21 00:25:24;;;;;;;;;19.25;15.50;;;;;23.15;46.96;102017.81;5078034;28;45443;-55
2021/09/21 00:27:50;;;;;;;;;13.50;12.75;;;;;23.14;47.20;102011.66;5078524;28;45286;-53
2021/09/21 00:30:16;;;;;;;;;13.25;12.25;;;;;23.14;46.78;102014.28;5076731;28;46209;-61
2021/09/21 00:32:44;;;;;;;;;12.50;11.50;;;;;23.14;46.92;102021.38;5077667;28;45876;-52
2021/09/21 00:35:11;;;;;;;;;12.00;12.00;;;;;23.13;46.74;102020.50;5077675;28;45330;-55
2021/09/21 00:37:37;;;;;;;;;11.75;11.75;;;;;23.13;46.75;102015.22;5078004;28;45311;-55
2021/09/21 00:40:03;;;;;;;;;12.75;12.25;;;;;23.14;46.56;102022.22;5059228;28;47594;-56
2021/09/21 00:42:31;;;;;;;;;14.50;14.50;;;;;23.11;46.48;102017.06;5077704;28;45779;-52
2021/09/21 00:44:59;;;;;;;;;13.25;13.25;;;;;23.13;46.43;102006.44;5077734;28;45370;-54
2021/09/21 00:47:26;;;;;;;;;13.25;13.25;;;;;23.13;46.65;102017.03;5059705;28;45540;-51
2021/09/21 00:49:52;;;;;;;;;10.50;8.75;;;;;23.12;46.62;102013.50;5077706;28;46636;-59
2021/09/21 00:52:18;;;;;;;;;12.75;12.75;;;;;23.12;46.35;102023.25;5077367;28;45403;-64
2021/09/21 00:54:43;;;;;;;;;14.25;11.00;;;;;23.10;46.42;102015.34;5077318;28;45296;-60
2021/09/21 00:57:10;;;;;;;;;11.25;11.25;;;;;23.08;46.09;102019.88;5077642;28;45311;-51
2021/09/21 00:59:36;;;;;;;;;14.75;13.50;;;;;23.08;46.12;102011.94;5077150;28;46474;-56
2021/09/21 01:02:01;;;;;;;;;12.50;11.50;;;;;23.08;45.98;102011.94;5077353;28;45379;-54
2021/09/21 01:04:27;;;;;;;;;13.75;11.50;;;;;23.09;46.19;102010.16;5077468;28;45308;-57
2021/09/21 01:06:52;;;;;;;;;12.75;11.50;;;;;23.08;46.29;102014.59;5077768;28;45578;-57
2021/09/21 01:09:19;;;;;;;;;14.75;13.25;;;;;23.08;45.61;102022.53;5077152;28;46586;-64
2021/09/21 01:11:49;;;;;;;;;15.00;15.00;;;;;23.06;46.13;102024.38;5077024;28;45853;-65
2021/09/21 01:14:15;;;;;;;;;14.00;11.25;;;;;23.08;45.67;102026.94;5077240;28;45409;-60
2021/09/21 01:16:41;;;;;;;;;11.25;11.00;;;;;23.07;45.67;102027.88;5077191;28;45565;-56
2021/09/21 01:19:09;;;;;;;;;12.50;11.75;;;;;23.06;45.78;102036.72;5076964;28;45588;-58
2021/09/21 01:21:35;;;;;;;;;13.50;12.50;;;;;23.06;45.79;102029.69;5076877;28;45228;-60
2021/09/21 01:24:00;;;;;;;;;12.75;12.50;;;;;23.05;45.60;102027.97;5077119;28;45227;-51
2021/09/21 01:26:25;;;;;;;;;14.75;11.50;;;;;23.05;45.42;102021.78;5076206;28;45281;-58
2021/09/21 01:28:51;;;;;;;;;15.00;14.00;;;;;23.03;45.62;102032.44;5076924;28;46446;-60
2021/09/21 01:31:17;;;;;;;;;12.50;11.50;;;;;23.04;45.43;102039.47;5076862;28;45277;-63
2021/09/21 01:33:47;;;;;;;;;13.75;10.75;;;;;23.02;45.58;102033.38;5077063;28;45381;-61
2021/09/21 01:36:14;;;;;;;;;13.75;13.50;;;;;23.01;45.23;102032.53;5077061;28;45405;-63
2021/09/21 01:38:40;;;;;;;;;14.00;13.00;;;;;23.01;45.36;102037.81;5076891;28;46222;-56
2021/09/21 01:41:05;;;;;;;;;13.50;12.00;;;;;23.00;45.25;102036.09;5076604;28;45257;-49
2021/09/21 01:43:31;;;;;;;;;17.75;15.00;;;;;23.00;45.18;102029.94;5076942;28;45176;-51
2021/09/21 01:45:56;;;;;;;;;8.25;8.25;;;;;23.00;45.09;102036.09;5077267;28;45174;-55
2021/09/21 01:48:21;;;;;;;;;12.75;12.00;;;;;22.98;45.25;102045.91;5076577;28;46628;-54
2021/09/21 01:50:55;;;;;;;;;16.00;12.75;;;;;23.00;44.75;102040.53;5076598;28;45298;-63
2021/09/21 01:53:41;;;;;;;;;15.50;12.00;;;;;22.99;44.72;102041.44;5076512;28;45249;-57
2021/09/21 01:58:51;;;;;;;;;14.25;13.75;;;;;23.00;44.98;102043.16;5076488;28;45241;-54
2021/09/21 02:01:27;;;;;;;;;15.25;14.75;;;;;22.98;44.82;102045.06;5076121;28;45471;-59
2021/09/21 02:03:55;;;;;;;;;13.50;13.00;;;;;22.97;44.85;102045.97;5076576;28;45339;-59
2021/09/21 02:06:27;;;;;;;;;16.25;13.75;;;;;22.97;44.91;102045.97;5058555;28;45293;-51
2021/09/21 02:08:52;;;;;;;;;14.75;13.50;;;;;22.96;44.73;102053.03;5076159;28;46956;-55
2021/09/21 02:11:18;;;;;;;;;15.25;14.00;;;;;22.96;44.79;102044.25;5076259;28;45322;-57
2021/09/21 02:13:43;;;;;;;;;14.00;13.00;;;;;22.95;44.54;102053.97;5076477;28;45248;-53
2021/09/21 02:16:10;;;;;;;;;13.75;12.25;;;;;22.95;44.71;102048.66;5076428;28;45516;-57
2021/09/21 02:18:35;;;;;;;;;14.00;13.00;;;;;22.95;44.35;102053.97;5076097;28;45500;-57
2021/09/21 02:21:01;;;;;;;;;14.00;13.50;;;;;22.95;44.40;102053.13;5075999;28;45423;-57
2021/09/21 02:23:27;;;;;;;;;12.25;12.00;;;;;22.95;44.32;102061.88;5076668;28;45418;-57
2021/09/21 02:25:52;;;;;;;;;12.75;12.00;;;;;22.94;44.39;102056.69;5076522;28;45336;-47
2021/09/21 02:28:18;;;;;;;;;15.00;15.00;;;;;22.93;44.41;102060.25;5075934;28;46193;-46
2021/09/21 02:30:44;;;;;;;;;17.75;13.25;;;;;22.93;44.56;102061.09;5076023;28;45585;-54
2021/09/21 02:33:09;;;;;;;;;14.25;14.25;;;;;22.90;44.38;102061.25;5076196;28;45311;-55
2021/09/21 02:35:35;;;;;;;;;13.75;13.75;;;;;22.92;44.48;102072.63;5076355;28;45262;-50
2021/09/21 02:38:00;;;;;;;;;15.75;12.75;;;;;22.93;44.37;102073.47;5076109;28;46135;-49
2021/09/21 02:40:30;;;;;;;;;14.25;14.25;;;;;22.93;44.32;102078.75;5076248;28;45288;-51
2021/09/21 02:42:56;;;;;;;;;17.00;14.50;;;;;22.91;44.08;102072.69;5057916;28;45326;-46
2021/09/21 02:45:21;;;;;;;;;17.00;12.50;;;;;22.91;44.01;102072.69;5091944;27;45381;-51
2021/09/21 02:47:47;;;;;;;;;14.25;14.25;;;;;22.91;44.18;102067.38;5075761;28;46122;-47
2021/09/21 02:50:12;;;;;;;;;14.00;12.00;;;;;22.91;44.33;102059.47;5075851;28;45540;-52
2021/09/21 02:52:38;;;;;;;;;13.25;11.75;;;;;22.91;44.34;102062.97;5075981;28;45354;-48
2021/09/21 02:55:04;;;;;;;;;16.00;14.50;;;;;22.90;44.21;102060.38;5079189;28;45324;-53
2021/09/21 02:57:34;;;;;;;;;17.00;14.00;;;;;22.89;44.04;102053.38;5079442;27;45294;-51
2021/09/21 03:00:04;;;;;;;;;14.75;14.00;;;;;22.90;44.20;102065.66;5079378;28;45429;-48
2021/09/21 03:02:32;;;;;;;;;14.75;14.25;;;;;22.88;44.03;102067.53;5079754;28;45249;-47
2021/09/21 03:05:01;;;;;;;;;17.25;15.75;;;;;22.87;44.04;102063.19;5079679;28;45429;-46
2021/09/21 03:07:32;;;;;;;;;14.75;12.50;;;;;22.85;44.28;102069.41;5079287;28;45566;-49
2021/09/21 03:10:45;;;;;;;;;19.00;15.75;;;;;22.85;44.15;102069.41;5079226;28;45407;-49
2021/09/21 03:18:04;;;;;;;;;16.25;16.25;;;;;22.84;44.08;102088.84;5078890;28;45537;-46
2021/09/21 03:20:30;;;;;;;;;16.75;13.50;;;;;22.83;43.75;102087.13;5079077;28;45350;-46
2021/09/21 03:22:56;;;;;;;;;17.50;15.75;;;;;22.83;43.91;102088.88;5078945;28;45386;-49
2021/09/21 03:25:21;;;;;;;;;16.00;15.50;;;;;22.83;43.84;102086.25;5079150;28;45462;-46
2021/09/21 03:27:47;;;;;;;;;14.25;13.00;;;;;22.81;43.80;102088.97;5078708;28;45419;-48
2021/09/21 03:30:13;;;;;;;;;19.75;16.00;;;;;22.81;43.92;102088.13;5060655;28;45900;-50
2021/09/21 03:32:39;;;;;;;;;19.50;17.25;;;;;22.80;43.85;102089.88;5078883;28;45288;-49
2021/09/21 03:35:05;;;;;;;;;14.75;10.75;;;;;22.81;43.79;102094.25;5078912;28;45588;-47
2021/09/21 03:37:31;;;;;;;;;15.75;15.50;;;;;22.82;43.66;102092.47;5078888;28;47268;-47
2021/09/21 03:39:57;;;;;;;;;20.75;15.00;;;;;22.80;43.81;102097.81;5078439;28;45276;-53
2021/09/21 03:42:23;;;;;;;;;13.50;13.50;;;;;22.79;44.00;102096.09;5060411;28;45414;-51
2021/09/21 03:44:48;;;;;;;;;17.25;15.25;;;;;22.80;43.86;102092.53;5078836;28;45341;-52
2021/09/21 03:47:14;;;;;;;;;17.75;15.75;;;;;22.79;44.00;102088.16;5078332;28;46216;-55
2021/09/21 03:49:39;;;;;;;;;14.75;13.25;;;;;22.78;43.98;102091.75;5060032;28;45844;-61
2021/09/21 03:52:05;;;;;;;;;15.75;14.75;;;;;22.78;43.90;102094.38;5078599;28;45399;-58
2021/09/21 03:54:30;;;;;;;;;18.25;16.25;;;;;22.79;43.82;102089.97;5079051;28;45407;-60
2021/09/21 03:56:55;;;;;;;;;17.75;16.75;;;;;22.77;43.55;102092.66;5078251;28;46985;-58
2021/09/21 03:59:22;;;;;;;;;16.75;16.00;;;;;22.77;43.94;102097.94;5078161;28;45313;-57
2021/09/21 04:01:48;;;;;;;;;19.25;17.50;;;;;22.77;43.54;102090.03;5078332;28;45306;-57
2021/09/21 04:04:13;;;;;;;;;22.50;16.75;;;;;22.78;43.88;102098.81;5078059;28;45726;-60
2021/09/21 04:06:40;;;;;;;;;20.00;19.25;;;;;22.77;43.63;102105.03;5092871;27;47415;-49
2021/09/21 04:09:05;;;;;;;;;18.00;15.00;;;;;22.75;43.42;102102.47;5078080;28;45347;-50
2021/09/21 04:11:31;;;;;;;;;20.00;17.00;;;;;22.76;43.60;102103.31;5060351;28;45248;-51
2021/09/21 04:13:56;;;;;;;;;17.75;16.00;;;;;22.75;43.64;102107.75;5078266;28;45227;-51
2021/09/21 04:16:21;;;;;;;;;17.50;17.25;;;;;22.75;43.47;102109.53;5077932;28;45392;-52
2021/09/21 04:18:47;;;;;;;;;20.50;16.00;;;;;22.73;43.37;102104.31;5077926;28;45183;-50
2021/09/21 04:21:12;;;;;;;;;11.25;11.25;;;;;22.75;43.63;102110.41;5078225;28;45423;-48
2021/09/21 04:23:41;;;;;;;;;19.25;18.00;;;;;22.75;43.41;102113.03;5078184;28;45398;-49
2021/09/21 04:26:09;;;;;;;;;21.00;19.00;;;;;22.74;43.49;102119.25;5059536;28;47703;-47
2021/09/21 04:28:36;;;;;;;;;19.00;17.75;;;;;22.74;43.55;102123.66;5078110;28;45239;-48
2021/09/21 04:31:09;;;;;;;;;20.50;17.50;;;;;22.74;43.54;102131.59;5078165;28;45299;-49
2021/09/21 04:33:37;;;;;;;;;21.50;20.75;;;;;22.73;43.45;102138.69;5078065;28;45416;-48
2021/09/21 04:36:09;;;;;;;;;23.00;16.50;;;;;22.72;43.51;102136.09;5077794;28;46748;-48
2021/09/21 04:38:35;;;;;;;;;15.25;15.25;;;;;22.71;43.32;102137.88;5077975;28;45320;-47
2021/09/21 04:41:01;;;;;;;;;17.25;17.25;;;;;22.72;43.38;102138.72;5077896;28;45228;-49
2021/09/21 04:43:27;;;;;;;;;19.25;16.50;;;;;22.70;43.26;102147.59;5078014;28;45388;-48
2021/09/21 04:45:52;;;;;;;;;21.75;19.75;;;;;22.70;43.19;102136.16;5077464;28;46292;-46
2021/09/21 04:48:17;;;;;;;;;21.00;18.00;;;;;22.70;43.05;102144.97;5077333;28;45398;-47
2021/09/21 04:50:43;;;;;;;;;19.00;16.25;;;;;22.68;43.11;102140.66;5077578;28;45369;-49
2021/09/21 04:53:08;;;;;;;;;22.25;19.75;;;;;22.67;43.20;102144.22;5077744;28;45637;-47
2021/09/21 04:55:34;;;;;;;;;17.50;17.50;;;;;22.68;43.28;102148.56;5077757;28;45414;-54
2021/09/21 04:57:59;;;;;;;;;18.50;18.50;;;;;22.68;43.19;102146.81;5077430;28;45354;-47
2021/09/21 05:00:24;;;;;;;;;18.25;18.25;;;;;22.68;43.12;102151.22;5066820;28;45339;-48
2021/09/21 05:02:50;;;;;;;;;19.00;18.25;;;;;22.65;43.10;102141.66;5077592;27;45366;-49
2021/09/21 05:05:16;;;;;;;;;18.00;18.00;;;;;22.66;43.12;102148.66;5077113;28;46255;-49
2021/09/21 05:07:42;;;;;;;;;21.00;17.75;;;;;22.66;42.82;102147.78;5077314;27;45263;-47
2021/09/21 05:10:08;;;;;;;;;18.50;18.50;;;;;22.65;43.37;102140.81;5076190;28;45430;-55
2021/09/21 05:12:34;;;;;;;;;20.75;20.75;;;;;22.64;43.24;102139.94;5077548;28;45311;-48
2021/09/21 05:14:59;;;;;;;;;18.00;18.00;;;;;22.64;43.05;102144.38;5076842;28;45366;-51
2021/09/21 05:17:24;;;;;;;;;22.50;20.00;;;;;22.63;43.14;102143.50;5092373;27;45405;-46
2021/09/21 05:19:50;;;;;;;;;18.00;18.00;;;;;22.64;43.00;102149.66;5077173;27;45270;-48
2021/09/21 05:22:15;;;;;;;;;24.25;22.00;;;;;22.63;42.89;102151.41;5077193;28;45203;-47
2021/09/21 05:24:40;;;;;;;;;22.50;18.50;;;;;22.62;42.71;102148.84;5076784;27;46417;-47
2021/09/21 05:27:05;;;;;;;;;21.75;19.75;;;;;22.62;43.02;102149.69;5077244;27;45252;-47
2021/09/21 05:29:31;;;;;;;;;23.50;21.00;;;;;22.62;42.72;102148.84;5076979;27;45440;-50
2021/09/21 05:31:58;;;;;;;;;21.50;20.25;;;;;22.60;42.51;102159.47;5077239;27;45214;-48
2021/09/21 05:34:27;;;;;;;;;23.50;19.75;;;;;22.60;42.78;102170.03;5076527;28;45817;-52
2021/09/21 05:36:52;;;;;;;;;21.00;20.00;;;;;22.60;42.78;102172.69;5076732;27;46013;-60
2021/09/21 05:39:18;;;;;;;;;21.50;17.25;;;;;22.61;42.74;102170.91;5076785;28;45696;-47
2021/09/21 05:41:43;;;;;;;;;19.75;18.00;;;;;22.59;42.57;102178.06;5092677;27;45617;-49
2021/09/21 05:44:10;;;;;;;;;20.50;19.25;;;;;22.59;42.86;102188.63;5076822;28;47211;-46
2021/09/21 05:46:35;;;;;;;;;21.00;18.00;;;;;22.58;42.52;102190.41;5076829;27;45400;-48
2021/09/21 05:49:00;;;;;;;;;19.75;18.75;;;;;22.58;42.51;102187.78;5076714;28;45277;-53
2021/09/21 05:51:27;;;;;;;;;17.25;15.00;;;;;22.57;42.59;102190.47;5076783;28;45540;-54
2021/09/21 05:53:53;;;;;;;;;19.25;18.00;;;;;22.58;42.55;102194.81;5076418;28;46620;-65
2021/09/21 05:56:19;;;;;;;;;14.50;14.50;;;;;22.54;42.34;102192.31;5076441;27;45318;-62
2021/09/21 05:58:45;;;;;;;;;20.75;19.25;;;;;22.54;42.50;102194.94;5076488;28;45373;-53
2021/09/21 06:01:10;;;;;;;;;20.00;18.25;;;;;22.55;42.31;102199.31;5076484;28;45339;-56
2021/09/21 06:03:36;;;;;;;;;17.00;15.00;;;;;22.56;42.25;102197.53;5076724;28;45442;-51
2021/09/21 06:06:01;;;;;;;;;18.00;16.00;;;;;22.51;42.39;102192.47;5076355;28;45372;-57
2021/09/21 06:08:26;;;;;;;;;16.25;16.25;;;;;22.53;42.17;102200.31;5076512;28;45386;-59
2021/09/21 06:10:52;;;;;;;;;15.75;15.75;;;;;22.54;41.98;102204.66;5076616;28;45424;-52
2021/09/21 06:13:17;;;;;;;;;18.75;16.75;;;;;22.52;41.99;102204.75;5076161;28;46318;-56
2021/09/21 06:15:42;;;;;;;;;17.75;17.75;;;;;22.54;41.77;102213.44;5076270;28;46078;-58
2021/09/21 06:18:08;;;;;;;;;16.00;15.00;;;;;22.52;42.10;102215.31;5076723;28;45383;-58
2021/09/21 06:20:33;;;;;;;;;16.50;16.50;;;;;22.53;42.16;102211.75;5058445;28;45220;-64
2021/09/21 06:22:59;;;;;;;;;17.00;16.25;;;;;22.52;42.22;102223.25;5076187;28;45337;-66
2021/09/21 06:25:24;;;;;;;;;15.50;14.00;;;;;22.49;41.73;102220.72;5076200;28;45225;-57
2021/09/21 06:27:49;;;;;;;;;17.75;17.00;;;;;22.50;41.90;102227.72;5076302;28;45305;-62
2021/09/21 06:30:16;;;;;;;;;17.75;15.00;;;;;22.52;41.90;102230.28;5095906;27;45303;-53
2021/09/21 06:32:42;;;;;;;;;14.75;14.75;;;;;22.50;41.77;102225.09;5079680;28;46350;-52
2021/09/21 06:35:09;;;;;;;;;18.00;16.50;;;;;22.49;41.58;102228.66;5079782;28;45375;-48
2021/09/21 06:37:35;;;;;;;;;16.50;14.00;;;;;22.51;41.76;102245.31;5079775;28;45805;-47
2021/09/21 06:40:01;;;;;;;;;16.25;14.50;;;;;22.52;41.54;102240.88;5079840;28;45335;-50
2021/09/21 06:42:28;;;;;;;;;16.00;16.00;;;;;22.51;41.48;102234.72;5079274;28;46331;-50
2021/09/21 06:44:53;;;;;;;;;17.50;15.00;;;;;22.50;41.05;102243.56;5061218;28;46011;-48
2021/09/21 06:47:21;;;;;;;;;16.75;14.00;;;;;22.49;41.30;102247.13;5079665;28;45304;-57
2021/09/21 06:49:46;;;;;;;;;14.75;13.00;;;;;22.51;41.51;102260.28;5079643;28;45589;-53
2021/09/21 06:52:14;;;;;;;;;15.25;14.75;;;;;22.46;41.18;102265.75;5080060;28;46742;-57
2021/09/21 06:54:40;;;;;;;;;13.00;12.75;;;;;22.48;41.38;102266.56;5079763;28;45379;-54
2021/09/21 06:57:05;;;;;;;;;15.75;12.25;;;;;22.48;41.19;102261.28;5079478;28;45364;-48
2021/09/21 06:59:31;;;;;;;;;12.50;11.75;;;;;22.49;41.28;102273.56;5079492;28;45360;-47
2021/09/21 07:01:56;;;;;;;;;12.75;11.50;;;;;22.48;41.04;102271.84;5079198;28;45386;-46
2021/09/21 07:04:22;;;;;;;;;13.25;13.25;;;;;22.48;41.00;102271.84;5079209;28;45369;-46
2021/09/21 07:06:47;;;;;;;;;16.00;14.75;;;;;22.49;40.84;102284.13;5079171;28;45458;-47
2021/09/21 07:09:12;;;;;;;;;12.00;10.75;;;;;22.50;41.05;102284.97;5079755;28;45645;-53
2021/09/21 07:11:38;;;;;;;;;17.25;13.00;;;;;22.47;40.85;102274.56;5078993;28;46251;-48
2021/09/21 07:14:03;;;;;;;;;12.25;11.25;;;;;22.48;40.88;102281.56;5078973;28;45240;-47
2021/09/21 07:16:28;;;;;;;;;12.00;10.75;;;;;22.47;40.59;102291.25;5060832;28;45260;-46
2021/09/21 07:18:54;;;;;;;;;13.50;12.00;;;;;22.46;40.63;102294.81;5079341;28;45378;-51
2021/09/21 07:21:19;;;;;;;;;12.50;11.00;;;;;22.46;40.59;102297.47;5078795;28;46414;-50
2021/09/21 07:23:45;;;;;;;;;10.75;10.25;;;;;22.46;40.46;102293.97;5078960;28;45351;-47
2021/09/21 07:26:11;;;;;;;;;11.00;11.00;;;;;22.48;40.56;102302.69;5079384;28;45342;-53
2021/09/21 07:28:37;;;;;;;;;13.50;13.50;;;;;22.47;40.20;102306.25;5079082;28;45293;-49
2021/09/21 07:31:03;;;;;;;;;12.75;12.50;;;;;22.46;40.30;102309.81;5078513;28;46065;-53
2021/09/21 07:33:28;;;;;;;;;15.25;12.25;;;;;22.46;40.11;102310.66;5060378;28;45443;-54
2021/09/21 07:35:53;;;;;;;;;11.25;9.75;;;;;22.47;40.28;102312.38;5078695;28;45462;-49
2021/09/21 07:38:19;;;;;;;;;11.00;8.75;;;;;22.44;40.33;102304.56;5078762;28;45501;-48
2021/09/21 07:40:46;;;;;;;;;10.50;8.25;;;;;22.46;40.05;102312.47;5094214;27;46503;-50
2021/09/21 07:43:11;;;;;;;;;15.00;11.25;;;;;22.46;40.11;102317.75;5078894;28;45381;-50
2021/09/21 07:45:37;;;;;;;;;11.25;10.50;;;;;22.44;40.01;102322.22;5078716;28;45311;-51
2021/09/21 07:48:04;;;;;;;;;11.00;10.25;;;;;22.46;40.16;102320.38;5078735;28;45421;-55
2021/09/21 07:50:29;;;;;;;;;8.25;8.25;;;;;22.45;39.78;102324.78;5078267;28;46086;-47
2021/09/21 07:52:56;;;;;;;;;13.50;12.75;;;;;22.46;39.86;102315.94;5078434;28;45475;-53
2021/09/21 07:55:22;;;;;;;;;12.75;12.75;;;;;22.45;39.75;102314.22;5078299;28;45355;-52
2021/09/21 07:57:48;;;;;;;;;11.50;11.25;;;;;22.44;39.48;102331.00;5078481;28;45509;-55
2021/09/21 08:00:19;;;;;;;;;12.25;10.25;;;;;22.46;39.70;102330.94;5078315;28;45497;-57
2021/09/21 08:02:44;;;;;;;;;10.50;9.00;;;;;22.45;39.96;102324.78;5078465;28;45693;-56
2021/09/21 08:05:10;;;;;;;;;9.75;9.75;;;;;22.43;39.47;102326.66;5078421;28;45248;-62
2021/09/21 08:07:36;;;;;;;;;7.50;7.50;;;;;22.45;39.38;102334.50;5078588;28;45570;-64
2021/09/21 08:10:04;;;;;;;;;10.25;9.00;;;;;22.46;39.32;102326.50;5078168;28;45573;-50
2021/09/21 08:12:30;;;;;;;;;12.25;10.00;;;;;22.46;39.27;102336.25;5078034;28;45469;-61
2021/09/21 08:14:57;;;;;;;;;11.25;8.25;;;;;22.46;39.44;102333.59;5078287;28;45351;-56
2021/09/21 08:17:23;;;;;;;;;9.50;9.00;;;;;22.45;39.02;102331.88;5060166;28;45603;-53
2021/09/21 08:19:49;;;;;;;;;8.50;8.50;;;;;22.46;39.35;102342.38;5077966;28;45388;-50
2021/09/21 08:22:15;;;;;;;;;8.50;8.50;;;;;22.44;39.08;102338.91;5078397;28;45233;-54
2021/09/21 08:24:41;;;;;;;;;11.00;9.00;;;;;22.44;39.27;102328.34;5078061;28;45208;-57
2021/09/21 08:27:06;;;;;;;;;8.75;8.75;;;;;22.46;38.86;102337.09;5078191;28;45177;-51
2021/09/21 08:29:32;;;;;;;;;7.00;7.00;;;;;22.46;38.92;102339.72;5077818;28;45356;-57
2021/09/21 08:31:57;;;;;;;;;10.75;8.25;;;;;22.48;38.99;102344.97;5077845;28;45784;-63
2021/09/21 08:34:23;;;;;;;;;8.75;8.75;;;;;22.49;38.95;102351.97;5077812;28;45257;-60
2021/09/21 08:36:52;;;;;;;;;11.25;9.50;;;;;22.49;38.74;102350.19;5078160;28;45430;-53
2021/09/21 08:39:19;;;;;;;;;10.75;9.00;;;;;22.49;38.72;102351.97;5077880;28;46459;-51
2021/09/21 08:41:44;;;;;;;;;9.25;9.00;;;;;22.50;38.67;102354.53;5078206;28;45336;-49
2021/09/21 08:44:10;;;;;;;;;8.25;7.00;;;;;22.49;38.54;102350.19;5077749;28;45406;-61
2021/09/21 08:46:36;;;;;;;;;9.25;6.75;;;;;22.49;38.20;102357.25;5077801;28;45497;-49
2021/09/21 08:49:02;;;;;;;;;8.25;7.00;;;;;22.51;38.53;102355.38;5077429;28;45403;-56
2021/09/21 08:51:27;;;;;;;;;11.75;7.50;;;;;22.50;38.33;102353.66;5076553;28;45252;-57
2021/09/21 08:53:54;;;;;;;;;9.75;8.75;;;;;22.51;38.35;102372.13;5077673;28;45786;-53
2021/09/21 08:56:19;;;;;;;;;9.25;8.25;;;;;22.51;38.52;102371.25;5077641;28;45397;-54
2021/09/21 08:58:59;;;;;;;;;5.50;5.50;;;;;22.51;38.29;102369.47;5077661;28;45452;-50
2021/09/21 09:01:25;;;;;;;;;7.00;7.00;;;;;22.52;38.20;102371.19;5077288;28;45343;-46
2021/09/21 09:03:57;;;;;;;;;7.75;7.75;;;;;22.52;38.16;102362.41;5077447;28;45301;-46
2021/09/21 09:06:23;;;;;;;;;9.25;7.75;;;;;22.52;38.26;102360.63;5077541;28;45445;-48
2021/09/21 09:08:49;;;;;;;;;8.75;8.00;;;;;22.54;38.25;102360.56;5077227;28;45337;-48
2021/09/21 09:11:24;;;;;;;;;7.75;7.75;;;;;22.54;38.10;102357.91;5077462;28;45206;-47
2021/09/21 09:13:55;;;;;;;;;7.25;6.50;;;;;22.54;37.98;102371.13;5077735;28;45306;-47
2021/09/21 09:16:23;;;;;;;;;10.50;7.25;;;;;22.55;37.97;102365.78;5077525;28;45338;-56
2021/09/21 09:19:00;;;;;;;;;6.25;6.25;;;;;22.55;37.86;102363.13;5059272;28;48228;-54
2021/09/21 09:21:25;;;;;;;;;8.25;8.00;;;;;;;;5077168;28;45391;-54
2021/09/21 09:23:52;;;;;;;;;7.00;7.00;;;;;22.57;37.98;102365.72;5077444;28;45194;-57
2021/09/21 09:26:23;;;;;;;;;8.25;7.75;;;;;22.57;37.72;102359.56;5077527;28;45575;-47
2021/09/21 09:28:50;;;;;;;;;7.00;7.00;;;;;22.58;37.89;102374.50;5077282;28;45426;-53
2021/09/21 09:31:24;;;;;;;;;8.00;7.50;;;;;22.58;37.73;102364.81;5077232;28;45259;-54
2021/09/21 09:33:50;;;;;;;;;6.50;6.50;;;;;22.58;37.66;102371.88;5059261;28;45200;-47
2021/09/21 09:36:23;;;;;;;;;8.00;6.50;;;;;22.59;37.76;102378.88;5077810;28;45250;-54
2021/09/21 09:39:02;;;;;;;;;7.00;7.00;;;;;22.58;37.77;102377.16;5077430;27;45403;-55
2021/09/21 09:41:39;;;;;;;;;7.00;7.00;;;;;22.60;37.72;102380.59;5059087;28;45547;-60
2021/09/21 09:44:11;;;;;;;;;7.00;7.00;;;;;22.58;37.79;102371.88;5078658;28;45337;-51
2021/09/21 09:46:59;;;;;;;;;6.25;6.25;;;;;22.61;37.65;102377.88;5077156;27;45313;-49
2021/09/21 09:49:30;;;;;;;;;9.00;8.25;;;;;22.62;37.42;102376.97;5077222;28;47240;-47
2021/09/21 09:52:06;;;;;;;;;6.50;6.50;;;;;22.61;37.42;102382.31;5077163;28;45824;-47
2021/09/21 09:54:49;;;;;;;;;7.50;7.00;;;;;22.62;37.58;102376.13;5077794;28;45431;-53
2021/09/21 09:57:15;;;;;;;;;10.25;8.75;;;;;22.62;37.31;102376.13;5059763;28;45609;-50
2021/09/21 09:59:45;;;;;;;;;7.75;7.00;;;;;22.63;37.51;102372.56;5076818;28;45617;-50
2021/09/21 10:02:11;;;;;;;;;8.00;8.00;;;;;22.62;37.46;102363.75;5060597;28;45940;-52
2021/09/21 10:04:43;;;;;;;;;7.75;7.25;;;;;22.62;37.44;102374.31;5082036;28;45397;-47
2021/09/21 10:07:09;;;;;;;;;9.00;9.00;;;;;22.65;37.50;102374.22;5080818;28;45554;-50
2021/09/21 10:09:35;;;;;;;;;7.75;7.75;;;;;22.65;37.43;102376.00;5080173;28;46462;-52
2021/09/21 10:12:00;;;;;;;;;8.75;8.75;;;;;22.65;37.64;102368.06;5080527;28;45547;-54
2021/09/21 10:14:27;;;;;;;;;10.00;9.75;;;;;22.65;37.55;102374.22;5063192;28;45339;-53
2021/09/21 10:16:58;;;;;;;;;9.00;8.00;;;;;22.65;37.47;102378.66;5080384;28;45460;-49
2021/09/21 10:19:25;;;;;;;;;11.00;10.25;;;;;22.66;37.23;102377.69;5079965;28;45330;-51
2021/09/21 10:21:53;;;;;;;;;9.75;9.50;;;;;22.66;37.53;102380.34;5080154;28;45872;-62
2021/09/21 10:24:42;;;;;;;;;8.00;8.00;;;;;22.67;37.43;102382.06;5080266;28;45313;-57
2021/09/21 10:27:13;;;;;;;;;9.75;9.75;;;;;22.67;37.29;102371.50;5080240;28;45252;-52
2021/09/21 10:29:39;;;;;;;;;10.00;10.00;;;;;22.67;37.40;102377.66;5079686;28;45383;-55
2021/09/21 10:32:16;;;;;;;;;10.75;9.50;;;;;22.67;37.44;102369.72;5079693;28;45388;-51
2021/09/21 10:34:47;;;;;;;;;11.75;10.00;;;;;22.66;37.46;102378.56;5079764;28;45410;-57
2021/09/21 10:37:16;;;;;;;;;11.00;10.00;;;;;22.68;37.50;102374.09;5079935;28;45340;-47
2021/09/21 10:39:41;;;;;;;;;10.50;9.25;;;;;22.68;36.92;102362.66;5079450;28;47003;-51
2021/09/21 10:42:09;;;;;;;;;13.50;9.25;;;;;22.68;37.39;102358.25;5079505;28;45511;-46
2021/09/21 10:44:36;;;;;;;;;11.25;10.50;;;;;22.70;37.33;102371.38;5079653;28;45374;-47
2021/09/21 10:47:06;;;;;;;;;10.75;10.75;;;;;22.68;37.49;102363.53;5079858;28;45454;-47
2021/09/21 10:49:41;;;;;;;;;11.75;11.50;;;;;22.71;37.21;102365.16;5079228;28;48018;-48
2021/09/21 10:52:09;;;;;;;;;12.00;11.00;;;;;22.70;37.45;102372.25;5079306;27;45784;-55
2021/09/21 10:54:57;;;;;;;;;10.75;10.00;;;;;22.71;37.59;102378.38;5079547;28;45395;-52
2021/09/21 10:57:32;;;;;;;;;11.75;11.00;;;;;22.72;37.11;102366.03;5079642;28;45347;-50
2021/09/21 11:00:21;;;;;;;;;10.50;10.50;;;;;22.71;37.38;102373.09;5079210;28;46552;-47
2021/09/21 11:02:51;;;;;;;;;15.50;13.00;;;;;22.72;37.33;102358.97;5079348;28;45740;-47
2021/09/21 11:05:19;;;;;;;;;15.50;14.50;;;;;22.71;37.18;102357.25;5079181;28;45417;-49
2021/09/21 11:07:48;;;;;;;;;10.50;10.50;;;;;22.71;37.32;102359.88;5079642;28;45559;-49
2021/09/21 11:10:17;;;;;;;;;13.00;12.25;;;;;22.72;37.57;102364.25;5078929;28;45715;-53
2021/09/21 11:12:48;;;;;;;;;12.00;12.00;;;;;22.72;37.35;102363.38;5078927;28;45290;-58
2021/09/21 11:15:14;;;;;;;;;16.00;12.50;;;;;22.71;37.07;102359.88;5078482;28;45418;-64
2021/09/21 11:17:39;;;;;;;;;12.25;12.00;;;;;22.71;37.22;102357.25;5079345;28;45584;-51
2021/09/21 11:20:05;;;;;;;;;13.00;13.00;;;;;22.72;37.51;102358.97;5079231;28;45420;-65